Angwin, California
Current Conditions -  °F | °C
As of 4:53 PM on Friday 28 Nov 2014 (Local Time) from KSTS Reporting Station
Light Rain Light Rain  
Wind Chill: 56°   Ceiling: 1600
Heat Index: 56°   Visibility: 8mi
Dew Point: 54°   Wind: 3mph
Humidity: 93%   Direction: 170°S
Pressure: 29.86"   Gusts: NA
Location:  38.58°N, 122.45°W
Report Text: KSTS 290053Z 17003KT 8SM -RA OVC016 13/12 A2986 RMK AO2 RAB17 SLP105 P0000 T01330122
Loading
Personal Weather Stations






























Interactive Weather Map New forecast layout! Learn more

10-Day Weather Forecast

Advertisements
Track Severe Weather on mobile